OROVILLE DAM (ORO)

Elevation: 900' · FEATHER R basin · Operator: CA Dept of Water Resources/O & M

Provisional data, subject to change.
Query executed Wednesday at 21:45:45   clock

Select a sensor type for a plot of data.
Note: Reservoir Flows are daily averages.

Earlier

Date RES ELE    STORAGE    RES CHG    TOC STO    ABV TOC    OUTFLOW    INFLOW    EVAP    FNF    PPT INC    RAIN    PPTINC4   
 FEET   AF   AF   AF   AF   CFS   CFS   CFS   CFS   INCHES   INCHES   INCHES  
04/05/2016 872.19 3117258 10960 2992457 124826 2113 7619 54 9326 0.00 29.08 0.00
04/06/2016 873.01 3129112 11855 3014468 114670 1833 8010 128 9529 0.00 29.08 0.00
04/07/2016 874.00 3143468 14355 3036114 107353 910 8179 105 10187 0.00 29.08 0.00
04/08/2016 875.05 3158743 15275 3057155 101588 561 8372 109 10225 0.00 29.08 0.00
04/09/2016 876.21 3175681 16938 3074826 100855 0 8598 58 10564 0.00 29.08 0.00
04/10/2016 877.38 3192830 17149 3091860 100882 0 8630 59 11863 0.00 29.08 0.00
04/11/2016 878.44 3208423 15593 3111574 96854 406 8342 0 11000 0.00 29.08 0.00
04/12/2016 879.47 3223626 15203 3131617 91989 523 8134 20 10491 0.00 29.08 0.00
04/13/2016 880.40 3237380 13754 3149084 87204 533 7569 20 9973 0.00 29.08 0.00
04/14/2016 881.38 3251939 14559 3161723 90054 394 7958 148 10414 0.12 29.20 0.12
04/15/2016 882.30 3265650 13711 3180866 85608 750 7769 256 8754 0.00 29.20 0.00
04/16/2016 883.00 3276110 10460 3199959 76226 1090 6424 60 7936 0.00 29.20 0.00
04/17/2016 883.66 3285994 9884 3219001 67017 1106 6150 60 7844 0.00 29.20 0.00
04/18/2016 884.35 3296350 10356 3237768 58581 1106 6561 234 7896 0.00 29.20 0.00
04/19/2016 884.96 3305526 9176 3256269 49256 1381 6139 133 7660 0.00 29.20 0.00
04/20/2016 885.57 3314718 9193 3274510 40208 1443 6167 89 7942 0.00 29.20 0.00
04/21/2016 886.16 3323628 8909 3285857 31190 1440 6137 130 7554 0.00 29.20 0.00
04/22/2016 887.08 3337555 13927 3256388 79962 1436 8446 65 12698 0.80 30.00 0.00
04/23/2016 888.02 3351827 14272 3274037 82980 1427 8664 41 10510 0.00 30.00 0.80
04/24/2016 888.74 3362788 10962 3292816 70084 1410 6977 41 8685 0.00 30.00 0.00
04/25/2016 889.40 3372860 10071 3311442 61370 1413 6629 139 7981 0.00 30.00 0.00
04/26/2016 889.94 3381115 8255 3329804 51311 1636 5913 115 6722 0.00 30.00 0.00
04/27/2016 890.41 3388312 7197 3347848 40464 1910 5609 70 7218 0.00 30.00 0.00
04/28/2016 890.81 3394446 6134 3365458 28988 2074 5220 53 6446 0.00 30.00 0.00
04/29/2016 890.99 3397209 2763 3382861 14121 2703 4374 124 5312 0.00 30.00 0.00
04/30/2016 891.16 3399820 2611 3399584 93 3426 4824 82 6386 0.00 30.00 0.00
05/01/2016 891.37 3403047 3227 3415647 -12471 3431 5063 83 -- 0.00 30.00 0.00
05/02/2016 891.55 3405815 2768 3432660 -26720 3420 5045 229 -- 0.00 30.00 0.00
05/03/2016 891.59 3406431 616 3449458 -43027 4281 4810 141 -- 0.00 30.00 0.00
05/04/2016 -- -- -- -- -- -- -- -- -- -- -- 0.00

Later | Latest

Warning! This data is preliminary and subject to revision.

Show ORO Map | Plot ORO Data | 1 Month ORO Data | Real-Time ORO Data | ORO Info